createdAt,value
2024-01-07T00:02:26.050Z,4.00
2024-01-07T00:04:55.344Z,3.90
2024-01-07T00:07:23.271Z,3.90
2024-01-07T00:09:51.356Z,3.90
2024-01-07T00:12:19.349Z,3.90
2024-01-07T00:14:47.249Z,3.90
2024-01-07T00:17:15.307Z,3.90
2024-01-07T00:19:43.248Z,3.90
2024-01-07T00:22:12.612Z,3.80
2024-01-07T00:24:40.617Z,3.90
2024-01-07T00:27:09.488Z,3.80
2024-01-07T00:29:38.230Z,3.90
2024-01-07T00:32:06.565Z,3.90
2024-01-07T00:34:34.555Z,3.90
2024-01-07T00:37:02.589Z,3.80
2024-01-07T00:39:31.969Z,3.80
2024-01-07T00:41:59.914Z,3.80
2024-01-07T00:44:27.813Z,3.80
2024-01-07T00:46:55.708Z,3.80
2024-01-07T00:49:23.664Z,3.80
2024-01-07T00:51:51.701Z,3.80
2024-01-07T00:54:19.668Z,3.90
2024-01-07T00:56:49.000Z,3.90
2024-01-07T00:59:16.907Z,3.90
2024-01-07T01:01:44.868Z,3.90
2024-01-07T01:04:12.874Z,3.90
2024-01-07T01:06:40.981Z,3.90
2024-01-07T01:09:09.407Z,3.90
2024-01-07T01:11:37.304Z,3.90
2024-01-07T01:14:06.569Z,3.90
2024-01-07T01:16:34.473Z,3.90
2024-01-07T01:19:02.563Z,3.90
2024-01-07T01:21:30.537Z,3.90
2024-01-07T01:23:59.072Z,3.90
2024-01-07T01:26:26.992Z,3.90
2024-01-07T01:28:54.897Z,3.90
2024-01-07T01:31:24.262Z,3.90
2024-01-07T01:33:52.394Z,3.90
2024-01-07T01:36:20.366Z,3.90
2024-01-07T01:38:49.651Z,3.90
2024-01-07T01:41:18.717Z,3.90
2024-01-07T01:43:46.634Z,3.90
2024-01-07T01:46:16.367Z,3.90
2024-01-07T01:48:46.064Z,3.90
2024-01-07T01:51:14.101Z,3.90
2024-01-07T01:53:42.616Z,3.90
2024-01-07T01:56:10.818Z,3.90
2024-01-07T01:58:39.047Z,3.90
2024-01-07T02:01:07.801Z,3.90
2024-01-07T02:03:35.855Z,3.90
2024-01-07T02:06:05.564Z,3.90
2024-01-07T02:08:34.417Z,3.90
2024-01-07T02:11:16.688Z,3.90
2024-01-07T02:13:44.678Z,3.90
2024-01-07T02:16:13.255Z,3.90
2024-01-07T02:18:44.018Z,3.90
2024-01-07T02:21:15.099Z,3.90
2024-01-07T02:23:43.048Z,4.00
2024-01-07T02:26:12.411Z,4.00
2024-01-07T02:28:40.355Z,4.00
2024-01-07T02:31:08.360Z,4.00
2024-01-07T02:33:36.401Z,4.00
2024-01-07T02:36:04.799Z,4.00
2024-01-07T02:38:32.730Z,4.00
2024-01-07T02:41:00.633Z,4.00
2024-01-07T02:43:29.904Z,4.00
2024-01-07T02:45:57.853Z,4.00
2024-01-07T02:48:26.320Z,4.00
2024-01-07T02:50:54.345Z,4.00
2024-01-07T02:53:22.255Z,4.00
2024-01-07T02:55:50.189Z,3.90
2024-01-07T02:58:18.290Z,3.90
2024-01-07T03:00:47.653Z,3.90
2024-01-07T03:03:15.606Z,3.90
2024-01-07T03:05:43.701Z,3.90
2024-01-07T03:08:11.730Z,3.90
2024-01-07T03:10:39.640Z,3.90
2024-01-07T03:13:07.612Z,3.90
2024-01-07T03:15:35.744Z,3.90
2024-01-07T03:18:05.620Z,3.90
2024-01-07T03:20:33.984Z,3.80
2024-01-07T03:23:02.742Z,3.80
2024-01-07T03:25:30.738Z,3.80
2024-01-07T03:27:58.701Z,3.80
2024-01-07T03:30:26.779Z,3.80
2024-01-07T03:32:54.816Z,3.80
2024-01-07T03:35:25.297Z,3.80
2024-01-07T03:37:53.264Z,3.90
2024-01-07T03:40:21.330Z,3.80
2024-01-07T03:42:49.258Z,3.80
2024-01-07T03:45:17.247Z,3.80
2024-01-07T03:47:45.228Z,3.80
2024-01-07T03:50:13.252Z,3.80
2024-01-07T03:52:42.530Z,3.80
2024-01-07T03:55:10.733Z,3.70
2024-01-07T03:57:38.734Z,3.70
2024-01-07T04:00:09.243Z,3.70
2024-01-07T04:02:37.170Z,3.70
2024-01-07T04:05:05.670Z,3.70
2024-01-07T04:07:33.645Z,3.70
2024-01-07T04:10:03.631Z,3.70
2024-01-07T04:12:31.562Z,3.70
2024-01-07T04:14:59.596Z,3.70
2024-01-07T04:17:27.885Z,3.60
2024-01-07T04:19:56.147Z,3.60
2024-01-07T04:22:24.176Z,3.60
2024-01-07T04:24:52.110Z,3.60
2024-01-07T04:27:21.403Z,3.70
2024-01-07T04:29:49.334Z,3.70
2024-01-07T04:32:17.225Z,3.60
2024-01-07T04:34:45.207Z,3.60
2024-01-07T04:37:13.457Z,3.60
2024-01-07T04:39:41.478Z,3.60
2024-01-07T04:42:11.601Z,3.60
2024-01-07T04:44:42.610Z,3.60
2024-01-07T04:47:28.217Z,3.60
2024-01-07T04:49:56.224Z,3.60
2024-01-07T04:52:24.600Z,3.60
2024-01-07T04:54:52.998Z,3.50
2024-01-07T04:57:21.250Z,3.50
2024-01-07T04:59:52.277Z,3.50
2024-01-07T05:02:20.248Z,3.50
2024-01-07T05:04:48.179Z,3.50
2024-01-07T05:07:16.349Z,3.50
2024-01-07T05:09:44.308Z,3.50
2024-01-07T05:12:12.281Z,3.50
2024-01-07T05:14:40.195Z,3.50
2024-01-07T05:17:09.445Z,3.50
2024-01-07T05:19:37.475Z,3.50
2024-01-07T05:22:05.891Z,3.50
2024-01-07T05:24:35.200Z,3.50
2024-01-07T05:27:03.312Z,3.50
2024-01-07T05:29:31.189Z,3.50
2024-01-07T05:32:01.396Z,3.50
2024-01-07T05:34:30.929Z,3.50
2024-01-07T05:36:58.926Z,3.50
2024-01-07T05:39:26.883Z,3.50
2024-01-07T05:41:54.794Z,3.50
2024-01-07T05:44:22.674Z,3.50
2024-01-07T05:46:50.559Z,3.50
2024-01-07T05:49:18.588Z,3.50
2024-01-07T05:51:47.896Z,3.50
2024-01-07T05:54:15.882Z,3.50
2024-01-07T05:56:44.054Z,3.40
2024-01-07T05:59:11.947Z,3.40
2024-01-07T06:01:39.880Z,3.40
2024-01-07T06:04:07.878Z,3.40
2024-01-07T06:06:36.154Z,3.40
2024-01-07T06:09:05.580Z,3.40
2024-01-07T06:11:33.544Z,3.40
2024-01-07T06:14:01.693Z,3.40
2024-01-07T06:16:29.596Z,3.40
2024-01-07T06:18:57.693Z,3.40
2024-01-07T06:21:25.916Z,3.40
2024-01-07T06:23:53.927Z,3.40
2024-01-07T06:26:23.193Z,3.40
2024-01-07T06:28:51.209Z,3.30
2024-01-07T06:31:19.202Z,3.40
2024-01-07T06:33:47.392Z,3.30
2024-01-07T06:36:15.697Z,3.30
2024-01-07T06:38:43.635Z,3.30
2024-01-07T06:41:12.008Z,3.30
2024-01-07T06:43:41.302Z,3.30
2024-01-07T06:46:09.302Z,3.30
2024-01-07T06:48:37.399Z,3.20
2024-01-07T06:51:05.739Z,3.20
2024-01-07T06:53:33.631Z,3.20
2024-01-07T06:56:01.515Z,3.20
2024-01-07T06:58:29.417Z,3.20
2024-01-07T07:00:58.724Z,3.20
2024-01-07T07:03:26.815Z,3.20
2024-01-07T07:05:54.824Z,3.20
2024-01-07T07:08:22.741Z,3.20
2024-01-07T07:10:50.610Z,3.20
2024-01-07T07:13:18.553Z,3.10
2024-01-07T07:15:46.555Z,3.10
2024-01-07T07:18:16.226Z,3.10
2024-01-07T07:20:44.164Z,3.10
2024-01-07T07:23:12.093Z,3.10
2024-01-07T07:25:39.986Z,3.10
2024-01-07T07:28:08.106Z,3.10
2024-01-07T07:30:36.389Z,3.10
2024-01-07T07:33:04.800Z,3.10
2024-01-07T07:35:34.230Z,3.10
2024-01-07T07:38:02.156Z,3.10
2024-01-07T07:40:30.061Z,3.10
2024-01-07T07:42:58.280Z,3.10
2024-01-07T07:45:26.191Z,3.10
2024-01-07T07:47:54.147Z,3.10
2024-01-07T07:50:22.883Z,3.20
2024-01-07T07:52:52.190Z,3.20
2024-01-07T07:55:20.271Z,3.20
2024-01-07T07:57:48.995Z,3.20
2024-01-07T08:00:17.754Z,3.20
2024-01-07T08:02:45.918Z,3.20
2024-01-07T08:05:13.935Z,3.10
2024-01-07T08:07:42.468Z,3.10
2024-01-07T08:10:11.900Z,3.10
2024-01-07T08:12:39.888Z,3.10
2024-01-07T08:15:09.376Z,3.10
2024-01-07T08:17:37.308Z,3.20
2024-01-07T08:20:06.470Z,3.20
2024-01-07T08:22:34.534Z,3.20
2024-01-07T08:25:02.608Z,3.20
2024-01-07T08:27:33.695Z,3.20
2024-01-07T08:30:02.891Z,3.20
2024-01-07T08:32:30.923Z,3.20
2024-01-07T08:34:59.009Z,3.20
2024-01-07T08:37:27.009Z,3.10
2024-01-07T08:39:55.260Z,3.10
2024-01-07T08:42:24.181Z,3.10
2024-01-07T08:44:54.497Z,3.10
2024-01-07T08:47:22.403Z,3.10
2024-01-07T08:49:50.398Z,3.10
2024-01-07T08:52:18.491Z,3.10
2024-01-07T08:54:46.481Z,3.10
2024-01-07T08:57:14.475Z,3.10
2024-01-07T08:59:42.391Z,3.10
2024-01-07T09:02:11.826Z,3.00
2024-01-07T09:04:40.239Z,3.00
2024-01-07T09:07:08.279Z,3.00
2024-01-07T09:09:36.296Z,3.00
2024-01-07T09:12:04.797Z,3.00
2024-01-07T09:14:32.729Z,3.00
2024-01-07T09:17:00.620Z,3.00
2024-01-07T09:19:29.954Z,3.00
2024-01-07T09:21:57.889Z,3.00
2024-01-07T09:24:26.399Z,3.00
2024-01-07T09:26:54.366Z,3.00
2024-01-07T09:29:22.309Z,3.00
2024-01-07T09:31:50.355Z,3.00
2024-01-07T09:34:18.485Z,2.90
2024-01-07T09:36:47.853Z,2.90
2024-01-07T09:39:15.798Z,2.90
2024-01-07T09:41:43.767Z,2.90
2024-01-07T09:44:11.843Z,2.90
2024-01-07T09:46:41.814Z,2.90
2024-01-07T09:49:09.842Z,2.90
2024-01-07T09:51:38.661Z,2.90
2024-01-07T09:54:12.266Z,2.90
2024-01-07T09:56:44.440Z,2.90
2024-01-07T09:59:12.762Z,2.90
2024-01-07T10:01:41.301Z,2.90
2024-01-07T10:04:09.468Z,2.90
2024-01-07T10:06:38.776Z,2.90
2024-01-07T10:09:09.572Z,2.90
2024-01-07T10:11:37.730Z,2.90
2024-01-07T10:14:06.596Z,2.90
2024-01-07T10:16:34.985Z,2.80
2024-01-07T10:19:03.091Z,2.90
2024-01-07T10:21:31.197Z,2.90
2024-01-07T10:24:11.916Z,2.90
2024-01-07T10:26:40.497Z,2.80
2024-01-07T10:29:09.082Z,2.80
2024-01-07T10:31:37.364Z,2.80
2024-01-07T10:34:05.366Z,2.90
2024-01-07T10:36:33.970Z,2.80
2024-01-07T10:39:02.404Z,2.90
2024-01-07T10:41:33.377Z,2.90
2024-01-07T10:44:01.364Z,2.80
2024-01-07T10:46:31.840Z,2.80
2024-01-07T10:49:06.451Z,2.90
2024-01-07T10:51:37.189Z,2.90
2024-01-07T10:54:06.209Z,2.90
2024-01-07T10:56:45.177Z,2.90
2024-01-07T10:59:13.177Z,2.90
2024-01-07T11:01:41.295Z,2.90
2024-01-07T11:04:15.907Z,2.90
2024-01-07T11:06:50.279Z,2.90
2024-01-07T11:09:25.890Z,2.90
2024-01-07T11:11:55.730Z,2.80
2024-01-07T11:14:46.138Z,2.80
2024-01-07T11:17:15.251Z,2.80
2024-01-07T11:19:53.254Z,2.80
2024-01-07T11:22:26.193Z,2.80
2024-01-07T11:24:57.164Z,2.80
2024-01-07T11:27:27.015Z,2.80
2024-01-07T11:29:57.581Z,2.90
2024-01-07T11:32:27.505Z,2.90
2024-01-07T11:34:57.702Z,2.90
2024-01-07T11:37:26.050Z,2.90
2024-01-07T11:39:58.395Z,2.90
2024-01-07T11:42:27.723Z,2.80
2024-01-07T11:44:57.043Z,2.90
2024-01-07T11:47:26.961Z,2.90
2024-01-07T11:49:55.765Z,2.90
2024-01-07T11:52:24.175Z,2.80
2024-01-07T11:54:52.389Z,2.80
2024-01-07T11:57:20.324Z,2.80
2024-01-07T11:59:49.689Z,2.80
2024-01-07T12:02:18.485Z,2.80
2024-01-07T12:04:46.646Z,2.80
2024-01-07T12:07:15.821Z,2.80
2024-01-07T12:09:44.080Z,2.80
2024-01-07T12:12:12.294Z,2.80
2024-01-07T12:14:40.366Z,2.80
2024-01-07T12:17:13.777Z,2.70
2024-01-07T12:19:43.281Z,2.70
2024-01-07T12:22:11.626Z,2.70
2024-01-07T12:24:39.785Z,2.70
2024-01-07T12:27:08.519Z,2.70
2024-01-07T12:29:36.501Z,2.70
2024-01-07T12:32:04.928Z,2.70
2024-01-07T12:34:34.656Z,2.70
2024-01-07T12:37:03.384Z,2.90
2024-01-07T12:39:31.636Z,2.80
2024-01-07T12:41:59.646Z,2.80
2024-01-07T12:44:30.004Z,2.80
2024-01-07T12:46:57.921Z,2.80
2024-01-07T12:49:26.265Z,2.80
2024-01-07T12:51:55.898Z,2.80
2024-01-07T12:54:25.632Z,2.80
2024-01-07T12:56:53.907Z,2.70
2024-01-07T12:59:21.891Z,2.80
2024-01-07T13:01:52.192Z,2.80
2024-01-07T13:04:20.871Z,2.80
2024-01-07T13:06:49.119Z,2.70
2024-01-07T13:09:18.550Z,2.80
2024-01-07T13:11:46.682Z,2.80
2024-01-07T13:14:14.627Z,2.80
2024-01-07T13:16:42.604Z,2.70
2024-01-07T13:19:12.042Z,2.70
2024-01-07T13:21:42.782Z,2.70
2024-01-07T13:24:11.153Z,2.60
2024-01-07T13:26:43.117Z,2.50
2024-01-07T13:29:11.181Z,2.60
2024-01-07T13:31:39.224Z,2.60
2024-01-07T13:34:07.365Z,2.50
2024-01-07T13:36:35.382Z,2.50
2024-01-07T13:39:04.082Z,2.50
2024-01-07T13:41:33.269Z,2.40
2024-01-07T13:44:04.058Z,2.30
2024-01-07T13:46:32.060Z,2.30
2024-01-07T13:49:01.638Z,2.20
2024-01-07T13:51:29.683Z,2.20
2024-01-07T13:53:57.638Z,2.20
2024-01-07T13:56:25.626Z,2.20
2024-01-07T13:58:53.673Z,2.20
2024-01-07T14:01:24.346Z,2.20
2024-01-07T14:03:52.990Z,2.20
2024-01-07T14:06:20.957Z,2.20
2024-01-07T14:08:48.890Z,2.10
2024-01-07T14:11:17.062Z,2.10
2024-01-07T14:13:46.304Z,2.10
2024-01-07T14:16:14.437Z,2.20
2024-01-07T14:18:43.859Z,2.10
2024-01-07T14:21:11.891Z,2.00
2024-01-07T14:23:39.861Z,2.00
2024-01-07T14:26:07.898Z,1.90
2024-01-07T14:28:36.757Z,1.90
2024-01-07T14:31:05.515Z,1.90
2024-01-07T14:33:34.301Z,1.90
2024-01-07T14:36:04.737Z,1.80
2024-01-07T14:38:32.710Z,1.70
2024-01-07T14:41:00.764Z,1.70
2024-01-07T14:43:28.871Z,1.70
2024-01-07T14:45:56.945Z,1.70
2024-01-07T14:48:24.996Z,1.70
2024-01-07T14:50:53.206Z,1.70
2024-01-07T14:53:22.607Z,1.60
2024-01-07T14:55:50.614Z,1.60
2024-01-07T14:58:19.470Z,1.50
2024-01-07T15:00:47.656Z,1.50
2024-01-07T15:03:15.709Z,1.40
2024-01-07T15:05:43.710Z,1.40
2024-01-07T15:08:14.039Z,1.40
2024-01-07T15:10:43.637Z,1.30
2024-01-07T15:13:17.911Z,1.30
2024-01-07T15:15:49.928Z,1.30
2024-01-07T15:18:18.291Z,1.30
2024-01-07T15:20:47.751Z,1.30
2024-01-07T15:23:15.950Z,1.30
2024-01-07T15:25:46.308Z,1.20
2024-01-07T15:28:15.357Z,1.20
2024-01-07T15:30:43.629Z,1.20
2024-01-07T15:33:11.737Z,1.20
2024-01-07T15:35:40.076Z,1.20
2024-01-07T15:38:08.218Z,1.20
2024-01-07T15:40:36.205Z,1.10
2024-01-07T15:43:05.755Z,1.10
2024-01-07T15:45:33.903Z,1.10
2024-01-07T15:48:02.069Z,1.10
2024-01-07T15:50:30.318Z,1.10
2024-01-07T15:53:00.194Z,1.10
2024-01-07T15:55:28.641Z,1.00
2024-01-07T15:57:56.846Z,1.00
2024-01-07T16:00:26.229Z,1.00
2024-01-07T16:02:55.274Z,1.00
2024-01-07T16:05:23.333Z,1.00
2024-01-07T16:07:52.124Z,1.00
2024-01-07T16:10:20.158Z,1.00
2024-01-07T16:12:48.827Z,1.00
2024-01-07T16:15:17.017Z,1.00
2024-01-07T16:17:46.478Z,1.00
2024-01-07T16:20:14.721Z,1.00
2024-01-07T16:22:42.718Z,1.00
2024-01-07T16:25:10.860Z,1.00
2024-01-07T16:27:39.306Z,1.00
2024-01-07T16:30:09.740Z,0.90
2024-01-07T16:32:38.289Z,0.90
2024-01-07T16:35:08.432Z,0.90
2024-01-07T16:37:36.483Z,0.90
2024-01-07T16:40:06.577Z,0.90
2024-01-07T16:42:35.437Z,0.90
2024-01-07T16:45:03.945Z,0.90
2024-01-07T16:47:32.209Z,0.90
2024-01-07T16:52:32.785Z,0.90
2024-01-07T16:55:00.712Z,0.90
2024-01-07T16:57:28.706Z,0.90
2024-01-07T16:59:57.995Z,0.90
2024-01-07T17:02:26.052Z,0.90
2024-01-07T17:04:54.149Z,0.90
2024-01-07T17:07:22.236Z,0.90
2024-01-07T17:09:51.539Z,0.90
2024-01-07T17:12:19.612Z,1.00
2024-01-07T17:14:49.519Z,1.00
2024-01-07T17:17:17.559Z,1.00
2024-01-07T17:19:45.581Z,1.00
2024-01-07T17:22:13.728Z,1.00
2024-01-07T17:24:43.385Z,1.00
2024-01-07T17:27:12.788Z,1.00
2024-01-07T17:29:40.751Z,1.00
2024-01-07T17:32:12.264Z,0.90
2024-01-07T17:34:40.635Z,1.00
2024-01-07T17:37:08.927Z,1.00
2024-01-07T17:39:36.855Z,0.90
2024-01-07T17:42:07.021Z,0.90
2024-01-07T17:44:37.229Z,0.90
2024-01-07T17:47:06.608Z,0.90
2024-01-07T17:49:34.593Z,1.00
2024-01-07T17:52:03.318Z,1.00
2024-01-07T17:54:32.904Z,1.00
2024-01-07T17:57:00.854Z,1.00
2024-01-07T17:59:30.294Z,1.00
2024-01-07T18:01:59.736Z,1.00
2024-01-07T18:04:28.933Z,1.00
2024-01-07T18:06:56.933Z,1.00
2024-01-07T18:09:25.975Z,1.00
2024-01-07T18:11:53.943Z,1.00
2024-01-07T18:14:22.995Z,1.00
2024-01-07T18:16:51.198Z,1.00
2024-01-07T18:19:20.869Z,1.00
2024-01-07T18:21:49.048Z,1.00
2024-01-07T18:24:18.382Z,1.10
2024-01-07T18:26:46.595Z,1.10
2024-01-07T18:29:14.621Z,1.10
2024-01-07T18:31:43.467Z,1.10
2024-01-07T18:34:12.099Z,1.10
2024-01-07T18:36:41.587Z,1.10
2024-01-07T18:39:10.027Z,1.10
2024-01-07T18:41:38.033Z,1.10
2024-01-07T18:44:07.112Z,1.10
2024-01-07T18:46:35.262Z,1.00
2024-01-07T18:49:03.796Z,1.00
2024-01-07T18:51:32.131Z,1.00
2024-01-07T18:54:01.516Z,1.00
2024-01-07T18:56:29.898Z,1.00
2024-01-07T18:58:58.063Z,1.10
2024-01-07T19:01:28.113Z,1.10
2024-01-07T19:03:56.966Z,1.10
2024-01-07T19:06:24.991Z,1.10
2024-01-07T19:08:54.004Z,1.10
2024-01-07T19:11:23.369Z,1.10
2024-01-07T19:13:51.493Z,1.10
2024-01-07T19:16:19.521Z,1.10
2024-01-07T19:18:47.783Z,1.10
2024-01-07T19:21:19.125Z,1.20
2024-01-07T19:23:47.129Z,1.20
2024-01-07T19:26:15.328Z,1.20
2024-01-07T19:28:44.731Z,1.20
2024-01-07T19:31:12.844Z,1.20
2024-01-07T19:33:44.480Z,1.10
2024-01-07T19:36:12.717Z,1.10
2024-01-07T19:38:40.691Z,1.10
2024-01-07T19:41:08.682Z,1.10
2024-01-07T19:43:37.067Z,1.10
2024-01-07T19:46:06.527Z,1.10
2024-01-07T19:48:34.897Z,1.10
2024-01-07T19:51:03.443Z,1.10
2024-01-07T19:53:31.688Z,1.20
2024-01-07T19:56:03.065Z,1.10
2024-01-07T19:58:31.377Z,1.10
2024-01-07T20:00:59.424Z,1.10
2024-01-07T20:03:28.830Z,1.10
2024-01-07T20:05:57.037Z,1.10
2024-01-07T20:08:25.557Z,1.10
2024-01-07T20:10:54.267Z,1.10
2024-01-07T20:13:23.604Z,1.10
2024-01-07T20:15:51.719Z,1.10
2024-01-07T20:18:20.223Z,1.20
2024-01-07T20:20:49.841Z,1.10
2024-01-07T20:23:18.137Z,1.20
2024-01-07T20:25:47.484Z,1.20
2024-01-07T20:28:15.582Z,1.20
2024-01-07T20:30:43.669Z,1.20
2024-01-07T20:33:13.319Z,1.20
2024-01-07T20:35:41.508Z,1.20
2024-01-07T20:38:11.217Z,1.20
2024-01-07T20:40:39.796Z,1.20
2024-01-07T20:43:11.267Z,1.20
2024-01-07T20:45:40.136Z,1.10
2024-01-07T20:48:08.904Z,1.10
2024-01-07T20:50:38.561Z,1.10
2024-01-07T20:53:06.895Z,1.10
2024-01-07T20:55:36.273Z,1.10
2024-01-07T20:58:04.643Z,1.10
2024-01-07T21:00:33.464Z,1.10
2024-01-07T21:03:01.884Z,1.10
2024-01-07T21:05:30.035Z,1.10
2024-01-07T21:07:58.278Z,1.00
2024-01-07T21:10:26.547Z,0.90
2024-01-07T21:12:58.856Z,0.90
2024-01-07T21:15:27.628Z,0.90
2024-01-07T21:18:02.237Z,0.80
2024-01-07T21:20:31.440Z,0.80
2024-01-07T21:23:00.341Z,0.80
2024-01-07T21:25:31.724Z,0.80
2024-01-07T21:28:04.381Z,0.70
2024-01-07T21:30:32.534Z,0.70
2024-01-07T21:33:00.791Z,0.60
2024-01-07T21:35:29.279Z,0.60
2024-01-07T21:37:57.333Z,0.60
2024-01-07T21:40:25.598Z,0.60
2024-01-07T21:42:53.646Z,0.50
2024-01-07T21:45:23.003Z,0.60
2024-01-07T21:47:51.044Z,0.60
2024-01-07T21:50:19.048Z,0.50
2024-01-07T21:52:54.988Z,0.50
2024-01-07T21:55:23.462Z,0.50
2024-01-07T21:57:51.440Z,0.60
2024-01-07T22:00:19.884Z,0.60
2024-01-07T22:02:49.511Z,0.60
2024-01-07T22:05:17.853Z,0.60
2024-01-07T22:07:45.915Z,0.60
2024-01-07T22:10:13.900Z,0.70
2024-01-07T22:12:41.860Z,0.60
2024-01-07T22:15:10.947Z,0.60
2024-01-07T22:17:39.182Z,0.60
2024-01-07T22:20:10.184Z,0.60
2024-01-07T22:22:38.213Z,0.60
2024-01-07T22:25:08.359Z,0.50
2024-01-07T22:27:36.908Z,0.50
2024-01-07T22:30:05.281Z,0.40
2024-01-07T22:32:33.425Z,0.40
2024-01-07T22:35:03.997Z,0.40
2024-01-07T22:37:33.492Z,0.30
2024-01-07T22:40:01.666Z,0.40
2024-01-07T22:42:29.911Z,0.30
2024-01-07T22:44:57.961Z,0.30
2024-01-07T22:47:26.123Z,0.30
2024-01-07T22:49:54.201Z,0.30
2024-01-07T22:52:24.600Z,0.30
2024-01-07T22:54:54.366Z,0.30
2024-01-07T22:57:22.637Z,0.20
2024-01-07T22:59:50.546Z,0.20
2024-01-07T23:02:19.200Z,0.20
2024-01-07T23:04:47.308Z,0.20
2024-01-07T23:07:15.589Z,0.20
2024-01-07T23:09:43.585Z,0.20
2024-01-07T23:12:13.033Z,0.10
2024-01-07T23:14:41.046Z,0.10
2024-01-07T23:17:09.041Z,0.10
2024-01-07T23:19:37.076Z,0.10
2024-01-07T23:22:05.187Z,0.10
2024-01-07T23:24:33.225Z,0.10
2024-01-07T23:27:01.246Z,0.10
2024-01-07T23:29:30.711Z,0.10
2024-01-07T23:32:01.388Z,0.20
2024-01-07T23:34:30.861Z,0.10
2024-01-07T23:36:58.871Z,0.10
2024-01-07T23:39:26.851Z,0.10
2024-01-07T23:41:54.799Z,0.10
2024-01-07T23:44:22.790Z,0.10
2024-01-07T23:46:52.271Z,0.10
2024-01-07T23:49:20.378Z,0.10
2024-01-07T23:51:48.351Z,0.10
2024-01-07T23:54:16.348Z,0.10
2024-01-07T23:56:48.178Z,0.10
2024-01-07T23:59:16.204Z,0.10
